Time;durP1;ratioP1;P1;durP2;ratioP2;P2;SDS_P1;SDS_P2;PMS_P1;PMS_P2;Temp;Humidity;BMP_temperature;BMP_pressure;BME280_temperature;BME280_humidity;BME280_pressure;Samples;Min_cycle;Max_cycle;Signal;HPM_P1;HPM_P2
2023/10/07 00:00:47;;;;;;;10.50;4.85;;;21.50;79.50;;;;;;6216457;23;20434;-77
2023/10/07 00:03:23;;;;;;;8.38;5.65;;;21.50;79.50;;;;;;6215178;23;19997;-77
2023/10/07 00:05:50;;;;;;;10.43;5.35;;;21.40;79.50;;;;;;6216020;23;20012;-77
2023/10/07 00:08:19;;;;;;;10.07;5.15;;;21.50;79.50;;;;;;6215789;23;20005;-76
2023/10/07 00:10:46;;;;;;;8.82;4.65;;;21.40;79.20;;;;;;6215191;23;20428;-77
2023/10/07 00:13:13;;;;;;;8.50;4.72;;;21.40;79.10;;;;;;6216314;23;20005;-77
2023/10/07 00:15:46;;;;;;;7.50;4.72;;;21.40;78.70;;;;;;6215824;23;20091;-79
2023/10/07 00:18:13;;;;;;;9.75;4.60;;;21.40;78.40;;;;;;6189911;23;20400;-79
2023/10/07 00:20:56;;;;;;;8.95;4.60;;;21.40;78.10;;;;;;6216511;23;20052;-78
2023/10/07 00:23:28;;;;;;;8.10;4.03;;;21.40;77.80;;;;;;6214016;23;20001;-78
2023/10/07 00:25:57;;;;;;;10.77;4.00;;;21.40;77.70;;;;;;6215542;23;20388;-79
2023/10/07 00:28:32;;;;;;;7.45;3.50;;;21.40;77.90;;;;;;6216572;23;20005;-78
2023/10/07 00:31:22;;;;;;;5.75;3.50;;;21.40;77.60;;;;;;6215340;23;20000;-78
2023/10/07 00:33:51;;;;;;;5.90;3.63;;;21.40;77.30;;;;;;6215392;23;20055;-78
2023/10/07 00:39:23;;;;;;;8.55;3.90;;;21.40;77.00;;;;;;6133576;23;20469;-77
2023/10/07 00:41:58;;;;;;;6.40;3.70;;;21.40;77.20;;;;;;6214640;23;20020;-78
2023/10/07 00:44:26;;;;;;;7.45;4.45;;;21.30;77.10;;;;;;6189633;23;20431;-78
2023/10/07 00:47:35;;;;;;;8.88;3.83;;;21.30;77.10;;;;;;6215032;23;20005;-78
2023/10/07 00:54:57;;;;;;;5.65;3.55;;;21.10;77.10;;;;;;6215528;23;20346;-78
2023/10/07 00:57:34;;;;;;;7.70;4.45;;;21.00;77.30;;;;;;6214904;23;20028;-78
2023/10/07 01:00:35;;;;;;;6.22;3.67;;;20.90;77.50;;;;;;6214715;23;20012;-78
2023/10/07 01:08:35;;;;;;;7.90;4.18;;;20.90;78.10;;;;;;6216544;23;20096;-78
2023/10/07 01:11:19;;;;;;;11.63;4.68;;;21.00;78.20;;;;;;6215871;23;20027;-78
2023/10/07 01:13:50;;;;;;;7.70;3.70;;;21.00;78.10;;;;;;6214587;23;20004;-78
2023/10/07 01:16:31;;;;;;;7.65;4.00;;;21.00;78.00;;;;;;6215679;23;20032;-78
2023/10/07 01:21:57;;;;;;;12.27;4.30;;;20.90;78.20;;;;;;6215385;23;20016;-78
2023/10/07 01:24:33;;;;;;;7.15;3.90;;;20.80;78.30;;;;;;6214512;23;20024;-78
2023/10/07 01:27:06;;;;;;;7.28;3.88;;;20.70;78.40;;;;;;6188503;23;20004;-78
2023/10/07 01:29:34;;;;;;;6.97;3.90;;;20.70;78.50;;;;;;6215624;23;20001;-78
2023/10/07 01:32:00;;;;;;;8.00;4.30;;;20.70;78.90;;;;;;6213003;23;20005;-78
2023/10/07 01:34:30;;;;;;;6.72;3.67;;;20.70;79.10;;;;;;6214057;23;20005;-78
2023/10/07 01:36:57;;;;;;;8.40;4.05;;;20.70;79.20;;;;;;6215279;23;20416;-78
2023/10/07 01:39:24;;;;;;;8.02;4.05;;;20.70;79.00;;;;;;6214614;23;20000;-78
2023/10/07 01:41:50;;;;;;;7.93;3.95;;;20.70;79.00;;;;;;6215554;23;20000;-78
2023/10/07 01:44:15;;;;;;;7.82;4.18;;;20.70;78.80;;;;;;6215437;23;20469;-78
2023/10/07 01:46:43;;;;;;;7.38;4.15;;;20.70;78.60;;;;;;6212593;23;20020;-78
2023/10/07 01:49:12;;;;;;;7.90;4.20;;;20.70;78.60;;;;;;6215335;23;20028;-78
2023/10/07 01:51:44;;;;;;;6.90;3.85;;;20.70;78.50;;;;;;6189174;23;20047;-77
2023/10/07 01:54:11;;;;;;;7.20;3.63;;;20.60;78.40;;;;;;6213659;23;20017;-78
2023/10/07 01:56:38;;;;;;;5.68;3.65;;;20.60;78.50;;;;;;6215014;23;20013;-77
2023/10/07 01:59:17;;;;;;;9.30;3.83;;;20.60;78.60;;;;;;6214606;23;20005;-78
2023/10/07 02:01:53;;;;;;;7.22;4.18;;;20.60;78.60;;;;;;6212696;23;20367;-79
2023/10/07 02:04:26;;;;;;;6.35;4.20;;;20.50;78.70;;;;;;6215537;23;19997;-79
2023/10/07 02:06:54;;;;;;;6.22;3.63;;;20.50;78.80;;;;;;6214450;23;19997;-79
2023/10/07 02:09:24;;;;;;;7.65;4.13;;;20.50;78.90;;;;;;6214513;23;20071;-79
2023/10/07 02:12:01;;;;;;;8.75;4.10;;;20.40;79.00;;;;;;6214712;23;20481;-79
2023/10/07 02:14:28;;;;;;;8.32;3.72;;;20.40;78.90;;;;;;6210975;23;20079;-80
2023/10/07 02:16:59;;;;;;;5.95;3.58;;;20.40;79.10;;;;;;6216466;23;20004;-79
2023/10/07 02:19:29;;;;;;;6.32;3.83;;;20.30;79.10;;;;;;6217445;23;20032;-79
2023/10/07 02:22:07;;;;;;;8.02;4.10;;;20.30;79.30;;;;;;6215952;23;20376;-79
2023/10/07 02:24:41;;;;;;;5.72;3.55;;;20.20;79.30;;;;;;6215972;23;20000;-79
2023/10/07 02:27:19;;;;;;;7.07;3.33;;;20.20;79.50;;;;;;6216512;23;20412;-79
2023/10/07 02:29:56;;;;;;;7.10;3.60;;;20.20;79.50;;;;;;6215088;23;20367;-79
2023/10/07 02:32:22;;;;;;;7.93;4.03;;;20.20;79.50;;;;;;6217488;23;20009;-76
2023/10/07 02:34:51;;;;;;;6.63;3.95;;;20.20;79.60;;;;;;6215879;23;20004;-76
2023/10/07 02:37:30;;;;;;;8.10;4.05;;;20.20;79.70;;;;;;6217160;23;20001;-77
2023/10/07 02:40:18;;;;;;;7.83;3.73;;;20.30;79.70;;;;;;6216986;23;20111;-76
2023/10/07 02:42:46;;;;;;;5.88;3.47;;;20.30;79.60;;;;;;6215956;23;20243;-76
2023/10/07 02:47:47;;;;;;;6.30;3.70;;;20.30;79.70;;;;;;6218562;23;20055;-77
2023/10/07 02:50:13;;;;;;;4.47;3.10;;;20.30;79.70;;;;;;6217391;23;20075;-76
2023/10/07 02:52:39;;;;;;;7.07;3.47;;;20.30;79.60;;;;;;6215820;23;20005;-76
2023/10/07 02:57:45;;;;;;;7.22;4.10;;;20.20;79.60;;;;;;6214924;23;20012;-77
2023/10/07 03:00:16;;;;;;;5.30;3.45;;;20.20;79.60;;;;;;6216749;23;20055;-77
2023/10/07 03:02:49;;;;;;;9.13;3.97;;;20.20;79.80;;;;;;6215776;23;20026;-76
2023/10/07 03:05:26;;;;;;;6.45;3.63;;;20.20;80.10;;;;;;6216634;23;20001;-76
2023/10/07 03:08:01;;;;;;;7.03;3.45;;;20.20;80.00;;;;;;6216750;23;19997;-77
2023/10/07 03:10:43;;;;;;;5.38;3.38;;;20.20;79.80;;;;;;6214380;23;19996;-77
2023/10/07 03:13:09;;;;;;;5.55;4.10;;;20.20;80.00;;;;;;6216676;23;20023;-76
2023/10/07 03:18:03;;;;;;;8.48;3.55;;;20.20;80.10;;;;;;6216764;23;20013;-76
2023/10/07 03:20:31;;;;;;;6.47;3.72;;;20.10;80.00;;;;;;6216899;23;20055;-77
2023/10/07 03:23:25;;;;;;;7.25;3.90;;;20.20;80.20;;;;;;6216842;23;20331;-77
2023/10/07 03:28:23;;;;;;;6.80;3.75;;;20.20;80.10;;;;;;6218035;23;20031;-76
2023/10/07 03:30:51;;;;;;;4.22;3.03;;;20.20;80.10;;;;;;6217092;23;20677;-76
2023/10/07 03:33:45;;;;;;;5.28;3.58;;;20.20;80.20;;;;;;6215407;23;20035;-77
2023/10/07 03:38:57;;;;;;;6.90;3.80;;;20.10;80.10;;;;;;6217299;23;20012;-83
2023/10/07 03:41:23;;;;;;;7.22;4.25;;;20.10;80.00;;;;;;6216856;23;20023;-83
2023/10/07 03:43:50;;;;;;;6.70;4.10;;;20.10;80.00;;;;;;6216305;23;20423;-85
2023/10/07 03:46:17;;;;;;;4.78;3.17;;;20.00;79.90;;;;;;6216265;23;20412;-84
2023/10/07 03:48:53;;;;;;;6.45;3.60;;;20.00;79.90;;;;;;6217002;23;20004;-85
2023/10/07 03:51:22;;;;;;;5.75;3.40;;;20.00;79.90;;;;;;6216842;23;20334;-86
2023/10/07 03:53:51;;;;;;;8.55;3.10;;;20.00;80.00;;;;;;6216541;23;20040;-84
2023/10/07 03:56:20;;;;;;;5.78;3.25;;;20.00;80.40;;;;;;6216853;23;20499;-86
2023/10/07 03:58:47;;;;;;;6.18;3.20;;;20.00;79.70;;;;;;6216524;23;20430;-86
2023/10/07 04:01:17;;;;;;;5.10;3.55;;;20.00;79.70;;;;;;6191285;23;20020;-86
2023/10/07 04:03:52;;;;;;;6.37;3.20;;;20.00;79.40;;;;;;6217420;23;19996;-85
2023/10/07 04:06:30;;;;;;;6.15;3.35;;;20.00;79.40;;;;;;6216519;23;19997;-86
2023/10/07 04:09:05;;;;;;;6.78;3.25;;;20.00;79.40;;;;;;6216526;23;20024;-87
2023/10/07 04:11:38;;;;;;;4.85;2.92;;;20.00;79.30;;;;;;6216488;23;20008;-87
2023/10/07 04:14:27;;;;;;;5.97;3.40;;;20.00;79.20;;;;;;6189890;23;20360;-85
2023/10/07 04:17:04;;;;;;;5.40;3.20;;;20.00;79.20;;;;;;6189296;23;20015;-83
2023/10/07 04:21:55;;;;;;;5.55;2.97;;;20.00;79.10;;;;;;6216759;23;20307;-86
2023/10/07 04:24:26;;;;;;;5.90;2.97;;;20.00;79.00;;;;;;6216530;23;20381;-87
2023/10/07 04:26:54;;;;;;;6.55;3.03;;;20.00;78.80;;;;;;6216219;23;20004;-86
2023/10/07 04:29:21;;;;;;;6.05;3.40;;;20.00;78.80;;;;;;6216468;23;20446;-86
2023/10/07 04:31:51;;;;;;;7.93;3.80;;;20.00;78.90;;;;;;6216388;23;20098;-88
2023/10/07 04:34:18;;;;;;;5.77;3.23;;;20.00;79.00;;;;;;6216197;23;20501;-87
2023/10/07 04:39:39;;;;;;;5.60;3.35;;;20.00;79.10;;;;;;6216560;23;20019;-84
2023/10/07 04:42:20;;;;;;;4.80;3.05;;;20.00;79.20;;;;;;6215739;23;20055;-82
2023/10/07 04:47:34;;;;;;;3.75;2.97;;;19.90;79.30;;;;;;6216896;23;20011;-87
2023/10/07 04:53:09;;;;;;;4.40;2.72;;;19.90;79.30;;;;;;6217247;23;20008;-79
2023/10/07 04:55:28;;;;;;;5.78;2.92;;;19.80;79.30;;;;;;6210600;23;20028;-78
2023/10/07 05:02:57;;;;;;;5.25;3.13;;;19.70;79.50;;;;;;6216074;23;20004;-78
2023/10/07 05:05:30;;;;;;;5.85;2.75;;;19.70;79.70;;;;;;6215584;23;19996;-79
2023/10/07 05:08:08;;;;;;;7.78;3.13;;;19.60;79.80;;;;;;6214987;23;20008;-79
2023/10/07 05:10:38;;;;;;;7.28;3.05;;;19.60;79.90;;;;;;6215352;23;19996;-79
2023/10/07 05:13:06;;;;;;;6.53;3.85;;;19.60;80.10;;;;;;6215664;23;19996;-79
2023/10/07 05:15:41;;;;;;;8.02;3.85;;;19.60;80.20;;;;;;6215679;23;20007;-79
2023/10/07 05:18:08;;;;;;;6.90;3.92;;;19.60;80.30;;;;;;6215270;23;20351;-80
2023/10/07 05:20:37;;;;;;;5.22;3.65;;;19.60;80.20;;;;;;6215826;23;20001;-79
2023/10/07 05:23:04;;;;;;;5.88;3.15;;;19.60;80.30;;;;;;6215103;23;20075;-79
2023/10/07 05:25:43;;;;;;;7.55;3.08;;;19.60;80.20;;;;;;6215468;23;20005;-79
2023/10/07 05:28:15;;;;;;;6.30;2.92;;;19.60;80.20;;;;;;6214585;23;19997;-79
2023/10/07 05:30:50;;;;;;;6.72;3.13;;;19.60;80.40;;;;;;6215571;23;20308;-79
2023/10/07 05:33:24;;;;;;;3.80;2.75;;;19.60;80.70;;;;;;6215321;23;20054;-77
2023/10/07 05:35:50;;;;;;;3.70;2.60;;;19.70;80.70;;;;;;6215595;23;20048;-77
2023/10/07 05:38:19;;;;;;;7.45;3.20;;;19.70;80.60;;;;;;6215340;23;20008;-77
2023/10/07 05:40:47;;;;;;;6.73;3.30;;;19.70;80.60;;;;;;6215748;23;20005;-77
2023/10/07 05:43:13;;;;;;;4.82;2.97;;;19.70;80.70;;;;;;6215553;23;20001;-77
2023/10/07 05:45:40;;;;;;;5.63;3.28;;;19.70;80.60;;;;;;6214864;23;20007;-77
2023/10/07 05:48:10;;;;;;;7.20;3.55;;;19.70;81.00;;;;;;6215189;23;20078;-76
2023/10/07 05:50:36;;;;;;;;;;;19.70;80.60;;;;;;6215652;23;20001;-77
2023/10/07 05:53:05;;;;;;;5.63;2.97;;;19.70;80.70;;;;;;6214882;23;19906;-77
2023/10/07 05:55:34;;;;;;;4.85;2.80;;;19.70;80.90;;;;;;6214923;23;20032;-77
2023/10/07 05:58:01;;;;;;;7.75;3.30;;;19.80;80.80;;;;;;6215021;23;20506;-77
2023/10/07 06:00:31;;;;;;;6.45;3.10;;;19.80;81.20;;;;;;6215192;23;20327;-77
2023/10/07 06:02:59;;;;;;;5.65;3.20;;;19.80;80.70;;;;;;6215632;23;20024;-78
2023/10/07 06:05:27;;;;;;;4.80;2.75;;;19.90;80.80;;;;;;6215648;23;20331;-78
2023/10/07 06:07:57;;;;;;;7.45;3.47;;;19.80;80.70;;;;;;6215278;23;20012;-78
2023/10/07 06:10:24;;;;;;;12.38;2.75;;;19.90;80.60;;;;;;6215568;23;20004;-78
2023/10/07 06:12:56;;;;;;;4.28;2.75;;;19.90;80.50;;;;;;6215232;23;20030;-78
2023/10/07 06:15:23;;;;;;;6.15;2.90;;;19.90;80.50;;;;;;6215335;23;20343;-77
2023/10/07 06:17:49;;;;;;;4.30;2.47;;;19.90;80.60;;;;;;6215693;23;20079;-77
2023/10/07 06:20:15;;;;;;;3.92;2.72;;;20.00;80.50;;;;;;6215113;23;20024;-77
2023/10/07 06:22:48;;;;;;;7.32;2.88;;;20.00;80.30;;;;;;6214708;23;19996;-77
2023/10/07 06:25:15;;;;;;;5.70;2.85;;;20.00;80.50;;;;;;6215540;23;19997;-77
2023/10/07 06:27:44;;;;;;;5.38;3.00;;;20.00;80.50;;;;;;6215331;23;20000;-77
2023/10/07 06:30:20;;;;;;;5.18;3.15;;;20.00;80.20;;;;;;6215193;23;20001;-77
2023/10/07 06:32:55;;;;;;;4.72;3.22;;;20.00;80.00;;;;;;6215363;23;20374;-78
2023/10/07 06:35:23;;;;;;;5.28;2.97;;;20.00;80.00;;;;;;6215221;23;20238;-77
2023/10/07 06:37:54;;;;;;;5.70;2.72;;;20.10;79.90;;;;;;6215349;23;20018;-78
2023/10/07 06:40:29;;;;;;;3.67;2.55;;;20.10;80.00;;;;;;6215681;23;20393;-78
2023/10/07 06:43:01;;;;;;;4.43;2.65;;;20.10;80.10;;;;;;6215371;23;20001;-78
2023/10/07 06:45:35;;;;;;;6.15;2.95;;;20.20;80.00;;;;;;6215567;23;20487;-78
2023/10/07 06:48:06;;;;;;;6.50;2.90;;;20.20;79.90;;;;;;6189277;23;20301;-78
2023/10/07 06:50:33;;;;;;;6.32;2.70;;;20.20;79.70;;;;;;6214937;23;20000;-78
2023/10/07 06:52:59;;;;;;;4.97;2.97;;;20.30;79.20;;;;;;6215006;23;20024;-78
2023/10/07 06:55:25;;;;;;;4.88;2.92;;;20.30;79.10;;;;;;6215133;23;20303;-79
2023/10/07 06:57:56;;;;;;;6.45;2.70;;;20.40;78.90;;;;;;6215527;23;20019;-79
2023/10/07 07:00:23;;;;;;;9.93;3.17;;;20.40;78.80;;;;;;6217654;23;20083;-80
2023/10/07 07:02:59;;;;;;;8.27;3.40;;;20.40;78.80;;;;;;6217340;23;20470;-80
2023/10/07 07:05:26;;;;;;;5.47;2.60;;;20.40;78.60;;;;;;6217216;23;20379;-85
2023/10/07 07:07:54;;;;;;;5.18;3.00;;;20.50;78.50;;;;;;6216609;23;20028;-83
2023/10/07 07:10:27;;;;;;;7.10;2.85;;;20.50;78.60;;;;;;6216854;23;20073;-84
2023/10/07 07:13:13;;;;;;;4.90;2.78;;;20.50;78.50;;;;;;6216636;23;20009;-79
2023/10/07 07:15:42;;;;;;;4.38;3.00;;;20.60;78.50;;;;;;6216485;23;20009;-84
2023/10/07 07:18:14;;;;;;;5.80;2.50;;;20.70;78.20;;;;;;6217172;23;20055;-84
2023/10/07 07:21:00;;;;;;;4.78;2.70;;;20.70;78.20;;;;;;6190368;23;20358;-83
2023/10/07 07:23:39;;;;;;;5.15;3.17;;;20.80;78.60;;;;;;6217167;23;20422;-84
2023/10/07 07:26:10;;;;;;;3.88;2.58;;;20.80;78.00;;;;;;6216203;23;20009;-83
2023/10/07 07:28:42;;;;;;;5.75;2.95;;;20.80;77.70;;;;;;6216451;23;20000;-83
2023/10/07 07:31:11;;;;;;;7.78;2.80;;;20.90;77.80;;;;;;6189671;23;20011;-80
2023/10/07 07:33:37;;;;;;;4.25;2.55;;;21.00;78.10;;;;;;6216266;23;20005;-79
2023/10/07 07:36:18;;;;;;;4.32;2.83;;;21.00;78.00;;;;;;6216752;23;20001;-79
2023/10/07 07:38:45;;;;;;;3.22;2.17;;;21.20;77.90;;;;;;6216804;23;20020;-78
2023/10/07 07:41:26;;;;;;;5.80;2.67;;;21.30;77.70;;;;;;6216834;23;20068;-80
2023/10/07 07:43:53;;;;;;;5.25;2.75;;;21.40;77.50;;;;;;6216944;23;20000;-79
2023/10/07 07:48:45;;;;;;;4.85;3.03;;;21.60;77.20;;;;;;6216902;23;20028;-80
2023/10/07 07:51:16;;;;;;;3.80;2.50;;;21.70;76.90;;;;;;6216747;23;20004;-80
2023/10/07 07:53:43;;;;;;;6.03;2.85;;;21.80;76.70;;;;;;6216202;23;20012;-80
2023/10/07 07:56:12;;;;;;;4.85;2.67;;;21.90;76.20;;;;;;6215961;23;20080;-80
2023/10/07 07:58:41;;;;;;;3.03;2.00;;;22.00;76.00;;;;;;6216266;23;21170;-80
2023/10/07 08:01:28;;;;;;;7.10;2.83;;;22.20;75.80;;;;;;6215780;23;20039;-80
2023/10/07 08:03:55;;;;;;;4.70;2.70;;;22.30;75.70;;;;;;6216763;23;20001;-80
2023/10/07 08:06:21;;;;;;;10.20;2.97;;;22.40;75.50;;;;;;6216682;23;20004;-80
2023/10/07 08:08:53;;;;;;;4.68;2.70;;;22.40;75.20;;;;;;6216513;23;20363;-80
2023/10/07 08:11:19;;;;;;;4.45;2.72;;;22.50;75.40;;;;;;6216557;23;20001;-80
2023/10/07 08:13:45;;;;;;;3.30;2.22;;;22.60;75.30;;;;;;6216370;23;20007;-80
2023/10/07 08:16:17;;;;;;;4.50;2.80;;;22.70;75.10;;;;;;6216704;23;20016;-80
2023/10/07 08:18:53;;;;;;;6.32;2.70;;;22.80;74.80;;;;;;6216043;23;20000;-80
2023/10/07 08:21:28;;;;;;;10.27;3.33;;;22.90;74.40;;;;;;6215713;23;20055;-80
2023/10/07 08:23:54;;;;;;;6.30;2.47;;;23.10;74.10;;;;;;6215736;23;20003;-80
2023/10/07 08:26:23;;;;;;;4.95;3.13;;;23.20;73.80;;;;;;6215298;23;20001;-80
2023/10/07 08:31:37;;;;;;;4.93;2.50;;;23.30;73.30;;;;;;6215788;23;20016;-80
2023/10/07 08:36:34;;;;;;;7.60;2.88;;;23.50;73.30;;;;;;6216765;23;20156;-80
2023/10/07 08:39:04;;;;;;;3.97;2.55;;;23.50;72.80;;;;;;6214262;23;20534;-80
2023/10/07 08:41:31;;;;;;;3.92;2.40;;;23.60;72.40;;;;;;6215555;23;20000;-80
2023/10/07 08:44:14;;;;;;;3.65;2.25;;;23.70;71.70;;;;;;6216065;23;20025;-80
2023/10/07 08:46:45;;;;;;;6.53;3.00;;;23.80;71.60;;;;;;6215661;23;20360;-80
2023/10/07 08:49:15;;;;;;;5.05;2.53;;;23.90;71.30;;;;;;6214761;23;20025;-80
2023/10/07 08:51:43;;;;;;;4.28;2.38;;;24.00;70.50;;;;;;6215553;23;20028;-81
2023/10/07 08:54:17;;;;;;;4.80;2.63;;;24.20;70.80;;;;;;6215043;23;20423;-81
2023/10/07 08:56:54;;;;;;;5.18;2.78;;;24.30;70.80;;;;;;6215950;23;20000;-80
2023/10/07 08:59:25;;;;;;;4.82;2.72;;;24.40;70.40;;;;;;6216163;23;20058;-80
2023/10/07 09:01:59;;;;;;;5.50;3.35;;;24.60;70.40;;;;;;6216030;23;20086;-79
2023/10/07 09:04:29;;;;;;;6.07;2.97;;;24.80;70.10;;;;;;6216531;23;20466;-80
2023/10/07 09:06:55;;;;;;;5.25;2.83;;;24.90;69.60;;;;;;6216129;23;20308;-80
2023/10/07 09:09:43;;;;;;;3.42;2.45;;;25.00;69.50;;;;;;6216128;23;20009;-80
2023/10/07 09:12:29;;;;;;;4.75;2.33;;;25.10;69.20;;;;;;6215207;23;20000;-80
2023/10/07 09:14:59;;;;;;;4.75;2.60;;;25.20;69.00;;;;;;6214486;23;20497;-85
2023/10/07 09:17:29;;;;;;;10.95;2.45;;;25.40;69.00;;;;;;6215161;23;20728;-86
2023/10/07 09:20:01;;;;;;;4.65;2.83;;;25.40;68.70;;;;;;6215550;23;20008;-86
2023/10/07 09:22:33;;;;;;;4.70;2.83;;;25.60;68.50;;;;;;6215157;23;20078;-85
2023/10/07 09:25:16;;;;;;;5.47;3.03;;;25.70;68.40;;;;;;6214283;23;20400;-78
2023/10/07 09:27:54;;;;;;;7.88;3.70;;;25.80;67.90;;;;;;6213504;23;20000;-78
2023/10/07 09:30:35;;;;;;;6.43;4.28;;;25.90;67.80;;;;;;6215380;23;20071;-78
2023/10/07 09:33:06;;;;;;;6.55;3.83;;;26.00;67.30;;;;;;6215510;23;20005;-78
2023/10/07 09:35:33;;;;;;;6.07;4.28;;;26.10;66.90;;;;;;6214390;23;20016;-78
2023/10/07 09:38:00;;;;;;;7.63;4.43;;;26.20;66.70;;;;;;6215207;23;20055;-78
2023/10/07 09:43:19;;;;;;;5.10;3.78;;;26.50;65.70;;;;;;6214450;23;20497;-79
2023/10/07 09:45:52;;;;;;;5.97;3.83;;;26.60;65.40;;;;;;6188183;23;20004;-78
2023/10/07 09:48:29;;;;;;;7.38;3.90;;;26.60;65.00;;;;;;6214246;23;20055;-78
2023/10/07 09:50:58;;;;;;;11.20;4.40;;;26.60;65.30;;;;;;6215297;23;20012;-78
2023/10/07 09:53:36;;;;;;;6.93;3.83;;;26.70;65.30;;;;;;6214592;23;20017;-78
2023/10/07 09:56:29;;;;;;;6.00;3.20;;;26.80;64.30;;;;;;6215322;23;20023;-78
2023/10/07 09:59:18;;;;;;;7.93;3.50;;;27.00;63.20;;;;;;6212509;23;20019;-78
2023/10/07 10:01:54;;;;;;;6.15;3.65;;;27.00;63.50;;;;;;6212504;23;20028;-81
2023/10/07 10:04:40;;;;;;;9.00;3.88;;;27.20;63.70;;;;;;6214630;23;20016;-81
2023/10/07 10:07:06;;;;;;;13.35;3.90;;;27.30;64.10;;;;;;6188003;23;20415;-81
2023/10/07 10:10:00;;;;;;;5.90;3.40;;;27.30;64.00;;;;;;6214149;23;20020;-81
2023/10/07 10:12:37;;;;;;;5.80;2.95;;;27.40;64.10;;;;;;6213258;23;20343;-81
2023/10/07 10:17:53;;;;;;;6.47;3.08;;;27.80;62.60;;;;;;6215833;23;20088;-78
2023/10/07 10:20:27;;;;;;;5.97;3.50;;;27.90;62.60;;;;;;6214990;23;20007;-79
2023/10/07 10:23:00;;;;;;;18.63;3.67;;;27.90;62.20;;;;;;6215113;23;20001;-79
2023/10/07 10:25:48;;;;;;;9.52;3.60;;;28.00;62.20;;;;;;6211756;23;20028;-80
2023/10/07 10:28:25;;;;;;;8.60;3.53;;;28.00;62.70;;;;;;6212174;23;20080;-79
2023/10/07 10:30:53;;;;;;;5.82;3.35;;;28.20;62.50;;;;;;6214531;23;20431;-79
2023/10/07 10:33:24;;;;;;;7.43;4.03;;;28.30;62.50;;;;;;6216105;23;19997;-79
2023/10/07 10:35:52;;;;;;;7.07;4.07;;;28.50;62.60;;;;;;6217103;23;20001;-79
2023/10/07 10:38:19;;;;;;;5.82;3.67;;;28.50;62.30;;;;;;6215040;23;20058;-79
2023/10/07 10:40:45;;;;;;;9.60;4.30;;;28.50;62.70;;;;;;6216824;23;20319;-79
2023/10/07 10:43:24;;;;;;;6.90;3.65;;;28.60;62.80;;;;;;6216697;23;20327;-79
2023/10/07 10:46:10;;;;;;;7.72;4.90;;;28.60;62.40;;;;;;6217164;23;20058;-79
2023/10/07 10:48:38;;;;;;;12.63;3.72;;;28.80;62.60;;;;;;6215127;23;20012;-79
2023/10/07 10:51:05;;;;;;;5.32;3.70;;;28.80;62.70;;;;;;6216788;23;20001;-79
2023/10/07 10:53:57;;;;;;;11.15;3.65;;;29.00;63.20;;;;;;6217365;23;20092;-79
2023/10/07 10:56:26;;;;;;;6.70;3.92;;;29.10;62.60;;;;;;6217314;23;20020;-79
2023/10/07 10:58:53;;;;;;;10.82;3.45;;;29.30;63.00;;;;;;6216471;23;20378;-79
2023/10/07 11:01:19;;;;;;;7.07;3.60;;;29.50;62.70;;;;;;6216914;23;20570;-79
2023/10/07 11:03:49;;;;;;;7.30;3.88;;;29.60;62.70;;;;;;6216250;23;20000;-78
2023/10/07 11:06:15;;;;;;;10.27;4.05;;;29.80;62.60;;;;;;6216318;23;20004;-77
2023/10/07 11:08:41;;;;;;;6.93;4.18;;;29.80;61.60;;;;;;6216575;23;20103;-77
2023/10/07 11:11:10;;;;;;;7.53;4.22;;;29.90;61.30;;;;;;6190513;23;20431;-77
2023/10/07 11:13:38;;;;;;;6.68;3.95;;;29.90;60.90;;;;;;6216200;23;20057;-77
2023/10/07 11:16:11;;;;;;;7.00;3.60;;;30.00;61.00;;;;;;6215835;23;20481;-77
2023/10/07 11:18:38;;;;;;;5.75;3.97;;;30.10;61.10;;;;;;6216084;23;20004;-77
2023/10/07 11:21:18;;;;;;;6.82;4.03;;;30.20;61.10;;;;;;6216675;23;20004;-80
2023/10/07 11:23:49;;;;;;;8.25;4.80;;;30.40;60.80;;;;;;6214249;23;20035;-77
2023/10/07 11:26:16;;;;;;;7.82;4.07;;;30.40;60.80;;;;;;6215694;23;20004;-77
2023/10/07 11:28:43;;;;;;;8.50;4.50;;;30.50;61.30;;;;;;6215132;23;20124;-77
2023/10/07 11:31:09;;;;;;;6.55;4.47;;;30.60;61.20;;;;;;6216609;23;20075;-77
2023/10/07 11:33:34;;;;;;;11.65;4.68;;;30.70;61.10;;;;;;6215952;23;20375;-77
2023/10/07 11:36:02;;;;;;;7.60;4.32;;;30.70;61.50;;;;;;6216500;23;20001;-77
2023/10/07 11:38:29;;;;;;;8.07;4.00;;;30.80;61.10;;;;;;6216189;23;20347;-77
2023/10/07 11:40:55;;;;;;;4.78;3.40;;;30.90;60.80;;;;;;6216447;23;19996;-77
2023/10/07 11:43:21;;;;;;;6.55;4.45;;;31.00;60.70;;;;;;6215427;23;20071;-77
2023/10/07 11:45:48;;;;;;;7.43;3.60;;;31.20;60.50;;;;;;6215241;23;19997;-77
2023/10/07 11:48:14;;;;;;;8.68;4.22;;;31.40;61.20;;;;;;6215676;23;19997;-77
2023/10/07 11:50:40;;;;;;;6.72;4.38;;;31.60;60.00;;;;;;6216371;23;20024;-77
2023/10/07 11:53:17;;;;;;;7.47;5.00;;;31.70;59.80;;;;;;6183380;23;20028;-87
2023/10/07 11:55:50;;;;;;;8.05;4.13;;;31.70;59.00;;;;;;6215670;23;20009;-86
2023/10/07 11:58:17;;;;;;;8.38;4.65;;;31.90;59.20;;;;;;6188336;23;20011;-86
2023/10/07 12:00:46;;;;;;;8.25;5.03;;;31.90;58.70;;;;;;6215444;23;20334;-86
2023/10/07 12:03:12;;;;;;;6.13;3.93;;;32.10;58.50;;;;;;6215696;23;20131;-86
2023/10/07 12:05:40;;;;;;;6.10;4.68;;;32.10;58.10;;;;;;6215280;23;19997;-86
2023/10/07 12:08:08;;;;;;;7.60;4.97;;;32.20;58.60;;;;;;6189085;23;20083;-86
2023/10/07 12:10:33;;;;;;;10.65;5.35;;;32.40;58.40;;;;;;6215670;23;20005;-85
2023/10/07 12:13:00;;;;;;;13.55;5.07;;;32.40;58.30;;;;;;6216116;23;20028;-85
2023/10/07 12:15:26;;;;;;;8.52;4.15;;;32.50;57.90;;;;;;6187578;23;20009;-84
2023/10/07 12:17:53;;;;;;;6.50;4.45;;;32.50;57.70;;;;;;6216083;23;20078;-82
2023/10/07 12:20:22;;;;;;;6.97;4.45;;;32.60;57.50;;;;;;6215687;23;20005;-84
2023/10/07 12:22:48;;;;;;;7.40;4.85;;;32.60;57.50;;;;;;6215596;23;20000;-82
2023/10/07 12:25:16;;;;;;;6.95;5.35;;;32.60;57.20;;;;;;6215468;23;20043;-82
2023/10/07 12:27:49;;;;;;;7.70;4.80;;;32.70;56.60;;;;;;6215585;23;20347;-82
2023/10/07 12:30:21;;;;;;;8.88;4.30;;;32.60;56.70;;;;;;6214883;23;20011;-82
2023/10/07 12:32:50;;;;;;;5.20;4.07;;;32.50;56.80;;;;;;6215766;23;20004;-83
2023/10/07 12:35:17;;;;;;;;;;;32.50;56.30;;;;;;6216555;23;20005;-83
2023/10/07 12:37:46;;;;;;;6.40;4.32;;;32.40;56.60;;;;;;6215840;23;19911;-83
2023/10/07 12:40:19;;;;;;;9.60;4.95;;;32.40;56.70;;;;;;6215760;23;20001;-83
2023/10/07 12:42:46;;;;;;;11.77;5.78;;;32.40;56.00;;;;;;6213892;23;20005;-83
2023/10/07 12:45:12;;;;;;;20.38;5.38;;;32.40;55.90;;;;;;6215367;23;20093;-83
2023/10/07 12:47:41;;;;;;;9.32;6.35;;;32.30;56.20;;;;;;6215881;23;20020;-82
2023/10/07 12:53:11;;;;;;;25.55;4.80;;;32.10;56.70;;;;;;6064721;23;20188;-82
2023/10/07 12:55:37;;;;;;;10.15;5.22;;;32.00;56.90;;;;;;6063191;23;20023;-83
2023/10/07 12:58:09;;;;;;;10.73;5.68;;;31.80;57.00;;;;;;6134214;23;20013;-82
2023/10/07 13:00:36;;;;;;;9.63;5.70;;;31.50;57.00;;;;;;6213565;23;20059;-81
2023/10/07 13:03:04;;;;;;;9.90;5.90;;;31.30;57.60;;;;;;6213468;23;20032;-84
2023/10/07 13:05:37;;;;;;;9.93;4.90;;;30.90;57.80;;;;;;6213095;23;20327;-82
2023/10/07 13:08:12;;;;;;;11.30;6.40;;;30.70;58.30;;;;;;6213956;23;20012;-83
2023/10/07 13:10:38;;;;;;;7.93;5.85;;;30.40;58.70;;;;;;6213605;23;20035;-82
2023/10/07 13:13:05;;;;;;;13.35;5.95;;;30.10;59.20;;;;;;6213339;23;19997;-83
2023/10/07 13:15:33;;;;;;;7.85;5.85;;;29.90;59.30;;;;;;6187031;23;20032;-82
2023/10/07 13:17:59;;;;;;;8.40;6.10;;;29.80;59.80;;;;;;6186088;23;20012;-83
2023/10/07 13:20:26;;;;;;;11.80;5.80;;;29.60;60.20;;;;;;6213767;23;20009;-84
2023/10/07 13:22:54;;;;;;;6.93;4.78;;;29.40;60.20;;;;;;6213542;23;20000;-83
2023/10/07 13:25:20;;;;;;;8.43;5.03;;;29.30;60.50;;;;;;6213253;23;20466;-83
2023/10/07 13:27:46;;;;;;;9.35;5.10;;;29.20;60.90;;;;;;6212172;23;20027;-83
2023/10/07 13:30:13;;;;;;;9.82;5.70;;;29.10;61.20;;;;;;6213410;23;20426;-84
2023/10/07 13:32:46;;;;;;;9.75;5.70;;;29.00;61.40;;;;;;6213380;23;20427;-82
2023/10/07 13:35:16;;;;;;;13.60;5.78;;;28.90;61.90;;;;;;6213736;23;20004;-83
2023/10/07 13:37:45;;;;;;;9.83;5.27;;;28.80;62.10;;;;;;6213248;23;19997;-83
2023/10/07 13:40:17;;;;;;;12.23;5.65;;;28.70;62.30;;;;;;6212487;23;20602;-82
2023/10/07 13:42:53;;;;;;;8.32;5.47;;;28.60;62.40;;;;;;6186626;23;20000;-80
2023/10/07 13:45:26;;;;;;;12.63;6.45;;;28.50;62.60;;;;;;6213698;23;20003;-79
2023/10/07 13:47:55;;;;;;;13.85;6.35;;;28.40;62.80;;;;;;6214476;23;20014;-80
2023/10/07 13:50:24;;;;;;;10.43;5.78;;;28.30;63.10;;;;;;6213582;23;20008;-80
2023/10/07 13:58:00;;;;;;;10.93;5.85;;;28.10;63.50;;;;;;6215565;23;20087;-80
2023/10/07 14:01:12;;;;;;;11.00;6.00;;;28.10;63.90;;;;;;6215134;23;20001;-81
2023/10/07 14:03:22;;;;;;;7.85;4.78;;;28.00;64.10;;;;;;6194568;23;20013;-81
2023/10/07 14:06:01;;;;;;;9.70;5.55;;;28.00;64.70;;;;;;6215343;23;20111;-81
2023/10/07 14:08:29;;;;;;;9.45;5.55;;;27.90;64.70;;;;;;6214437;23;20023;-81
2023/10/07 14:10:59;;;;;;;8.82;5.60;;;27.90;64.90;;;;;;6215209;23;20024;-82
2023/10/07 14:13:29;;;;;;;;;;;27.80;64.50;;;;;;6189155;23;20004;-81